sensor_id;sensor_type;location;lat;lon;timestamp;temperature;humidity
14901;DHT22;7542;49.078;9.194;2023-06-04T00:00:05;29.90;40.10
14901;DHT22;7542;49.078;9.194;2023-06-04T00:01:08;30.00;40.70
14901;DHT22;7542;49.078;9.194;2023-06-04T00:02:17;30.00;40.70
14901;DHT22;7542;49.078;9.194;2023-06-04T00:03:19;29.90;40.00
14901;DHT22;7542;49.078;9.194;2023-06-04T00:04:21;30.00;40.60
14901;DHT22;7542;49.078;9.194;2023-06-04T00:05:24;30.10;40.50
14901;DHT22;7542;49.078;9.194;2023-06-04T00:06:27;30.10;40.40
14901;DHT22;7542;49.078;9.194;2023-06-04T00:07:28;30.20;40.30
14901;DHT22;7542;49.078;9.194;2023-06-04T00:08:31;30.20;40.40
14901;DHT22;7542;49.078;9.194;2023-06-04T00:09:33;30.20;40.30
14901;DHT22;7542;49.078;9.194;2023-06-04T00:10:35;30.20;39.90
14901;DHT22;7542;49.078;9.194;2023-06-04T00:11:37;30.20;40.10
14901;DHT22;7542;49.078;9.194;2023-06-04T00:12:39;30.20;40.20
14901;DHT22;7542;49.078;9.194;2023-06-04T00:13:41;30.30;40.30
14901;DHT22;7542;49.078;9.194;2023-06-04T00:14:43;30.30;40.20
14901;DHT22;7542;49.078;9.194;2023-06-04T00:15:45;30.30;39.80
14901;DHT22;7542;49.078;9.194;2023-06-04T00:16:47;30.30;38.10
14901;DHT22;7542;49.078;9.194;2023-06-04T00:17:49;30.20;37.00
14901;DHT22;7542;49.078;9.194;2023-06-04T00:18:51;30.10;36.60
14901;DHT22;7542;49.078;9.194;2023-06-04T00:19:53;30.00;36.60
14901;DHT22;7542;49.078;9.194;2023-06-04T00:20:55;29.80;36.30
14901;DHT22;7542;49.078;9.194;2023-06-04T00:21:57;29.70;36.50
14901;DHT22;7542;49.078;9.194;2023-06-04T00:22:59;29.70;36.80
14901;DHT22;7542;49.078;9.194;2023-06-04T00:24:01;29.60;36.90
14901;DHT22;7542;49.078;9.194;2023-06-04T00:25:04;29.60;37.10
14901;DHT22;7542;49.078;9.194;2023-06-04T00:26:06;29.50;37.10
14901;DHT22;7542;49.078;9.194;2023-06-04T00:27:08;29.50;37.10
14901;DHT22;7542;49.078;9.194;2023-06-04T00:28:11;29.50;37.10
14901;DHT22;7542;49.078;9.194;2023-06-04T00:29:13;29.50;37.10
14901;DHT22;7542;49.078;9.194;2023-06-04T00:30:14;29.50;37.10
14901;DHT22;7542;49.078;9.194;2023-06-04T00:31:17;29.50;37.00
14901;DHT22;7542;49.078;9.194;2023-06-04T00:32:19;29.50;37.00
14901;DHT22;7542;49.078;9.194;2023-06-04T00:33:21;29.40;37.10
14901;DHT22;7542;49.078;9.194;2023-06-04T00:34:23;29.40;36.80
14901;DHT22;7542;49.078;9.194;2023-06-04T00:35:25;29.40;36.90
14901;DHT22;7542;49.078;9.194;2023-06-04T00:36:27;29.40;36.90
14901;DHT22;7542;49.078;9.194;2023-06-04T00:37:29;29.40;37.00
14901;DHT22;7542;49.078;9.194;2023-06-04T00:38:31;29.40;37.00
14901;DHT22;7542;49.078;9.194;2023-06-04T00:39:34;29.40;37.00
14901;DHT22;7542;49.078;9.194;2023-06-04T00:40:36;29.30;37.00
14901;DHT22;7542;49.078;9.194;2023-06-04T00:41:38;29.30;37.00
14901;DHT22;7542;49.078;9.194;2023-06-04T00:42:40;29.30;37.00
14901;DHT22;7542;49.078;9.194;2023-06-04T00:43:42;29.30;37.00
14901;DHT22;7542;49.078;9.194;2023-06-04T00:44:47;29.30;37.00
14901;DHT22;7542;49.078;9.194;2023-06-04T00:45:49;29.30;37.00
14901;DHT22;7542;49.078;9.194;2023-06-04T00:46:52;29.30;36.90
14901;DHT22;7542;49.078;9.194;2023-06-04T00:47:55;29.30;36.90
14901;DHT22;7542;49.078;9.194;2023-06-04T00:48:57;29.30;36.90
14901;DHT22;7542;49.078;9.194;2023-06-04T00:49:59;29.20;36.90
14901;DHT22;7542;49.078;9.194;2023-06-04T00:51:01;29.30;36.90
14901;DHT22;7542;49.078;9.194;2023-06-04T00:52:05;29.20;36.90
14901;DHT22;7542;49.078;9.194;2023-06-04T00:53:07;29.20;36.80
14901;DHT22;7542;49.078;9.194;2023-06-04T00:54:12;29.20;36.80
14901;DHT22;7542;49.078;9.194;2023-06-04T00:55:16;29.10;36.80
14901;DHT22;7542;49.078;9.194;2023-06-04T00:56:20;29.10;36.80
14901;DHT22;7542;49.078;9.194;2023-06-04T00:57:22;29.10;36.80
14901;DHT22;7542;49.078;9.194;2023-06-04T00:58:24;29.10;36.90
14901;DHT22;7542;49.078;9.194;2023-06-04T00:59:26;29.10;36.90
14901;DHT22;7542;49.078;9.194;2023-06-04T01:00:30;29.10;37.00
14901;DHT22;7542;49.078;9.194;2023-06-04T01:01:43;29.00;37.00
14901;DHT22;7542;49.078;9.194;2023-06-04T01:02:52;28.90;36.60
14901;DHT22;7542;49.078;9.194;2023-06-04T01:03:56;28.80;36.80
14901;DHT22;7542;49.078;9.194;2023-06-04T01:05:11;28.70;36.80
14901;DHT22;7542;49.078;9.194;2023-06-04T01:06:38;28.80;36.80
14901;DHT22;7542;49.078;9.194;2023-06-04T01:07:45;28.60;36.90
14901;DHT22;7542;49.078;9.194;2023-06-04T01:08:50;28.50;36.90
14901;DHT22;7542;49.078;9.194;2023-06-04T01:09:56;28.50;37.10
14901;DHT22;7542;49.078;9.194;2023-06-04T01:10:58;28.40;37.10
14901;DHT22;7542;49.078;9.194;2023-06-04T01:12:04;28.40;37.10
14901;DHT22;7542;49.078;9.194;2023-06-04T01:13:06;28.40;37.10
14901;DHT22;7542;49.078;9.194;2023-06-04T01:14:10;28.30;37.20
14901;DHT22;7542;49.078;9.194;2023-06-04T01:15:12;28.30;37.30
14901;DHT22;7542;49.078;9.194;2023-06-04T01:16:15;28.20;37.40
14901;DHT22;7542;49.078;9.194;2023-06-04T01:17:29;28.20;37.40
14901;DHT22;7542;49.078;9.194;2023-06-04T01:18:39;28.10;37.40
14901;DHT22;7542;49.078;9.194;2023-06-04T01:21:08;28.00;37.60
14901;DHT22;7542;49.078;9.194;2023-06-04T01:23:44;27.90;37.10
14901;DHT22;7542;49.078;9.194;2023-06-04T01:24:53;28.00;37.70
14901;DHT22;7542;49.078;9.194;2023-06-04T01:25:57;28.00;37.70
14901;DHT22;7542;49.078;9.194;2023-06-04T01:26:59;27.90;37.20
14901;DHT22;7542;49.078;9.194;2023-06-04T01:28:02;27.90;37.20
14901;DHT22;7542;49.078;9.194;2023-06-04T01:29:06;27.90;37.20
14901;DHT22;7542;49.078;9.194;2023-06-04T01:30:09;26.20;36.60
14901;DHT22;7542;49.078;9.194;2023-06-04T01:31:13;27.90;37.20
14901;DHT22;7542;49.078;9.194;2023-06-04T01:32:16;27.80;37.20
14901;DHT22;7542;49.078;9.194;2023-06-04T01:33:19;27.80;37.10
14901;DHT22;7542;49.078;9.194;2023-06-04T01:34:23;27.80;37.20
14901;DHT22;7542;49.078;9.194;2023-06-04T01:35:27;27.80;37.30
14901;DHT22;7542;49.078;9.194;2023-06-04T01:36:30;27.70;37.40
14901;DHT22;7542;49.078;9.194;2023-06-04T01:37:32;27.70;37.40
14901;DHT22;7542;49.078;9.194;2023-06-04T01:38:33;27.70;37.50
14901;DHT22;7542;49.078;9.194;2023-06-04T01:39:35;27.60;37.60
14901;DHT22;7542;49.078;9.194;2023-06-04T01:40:37;27.60;37.70
14901;DHT22;7542;49.078;9.194;2023-06-04T01:41:39;27.60;37.80
14901;DHT22;7542;49.078;9.194;2023-06-04T01:42:42;27.70;37.80
14901;DHT22;7542;49.078;9.194;2023-06-04T01:43:44;27.60;37.90
14901;DHT22;7542;49.078;9.194;2023-06-04T01:44:46;27.70;37.80
14901;DHT22;7542;49.078;9.194;2023-06-04T01:45:48;27.70;37.90
14901;DHT22;7542;49.078;9.194;2023-06-04T01:46:50;27.60;37.90
14901;DHT22;7542;49.078;9.194;2023-06-04T01:47:52;27.60;37.90
14901;DHT22;7542;49.078;9.194;2023-06-04T01:48:55;27.60;37.90
14901;DHT22;7542;49.078;9.194;2023-06-04T01:49:56;27.60;37.90
14901;DHT22;7542;49.078;9.194;2023-06-04T01:50:58;27.60;37.90
14901;DHT22;7542;49.078;9.194;2023-06-04T01:52:00;27.60;37.80
14901;DHT22;7542;49.078;9.194;2023-06-04T01:53:02;27.50;37.80
14901;DHT22;7542;49.078;9.194;2023-06-04T01:54:05;27.50;37.90
14901;DHT22;7542;49.078;9.194;2023-06-04T01:55:09;27.60;37.80
14901;DHT22;7542;49.078;9.194;2023-06-04T01:56:13;27.50;37.80
14901;DHT22;7542;49.078;9.194;2023-06-04T01:57:16;27.40;37.80
14901;DHT22;7542;49.078;9.194;2023-06-04T01:58:18;27.40;37.90
14901;DHT22;7542;49.078;9.194;2023-06-04T01:59:24;27.40;37.90
14901;DHT22;7542;49.078;9.194;2023-06-04T02:00:27;27.50;37.90
14901;DHT22;7542;49.078;9.194;2023-06-04T02:01:29;27.40;37.90
14901;DHT22;7542;49.078;9.194;2023-06-04T02:02:31;27.40;37.90
14901;DHT22;7542;49.078;9.194;2023-06-04T02:03:33;27.30;37.90
14901;DHT22;7542;49.078;9.194;2023-06-04T02:04:38;27.40;37.90
14901;DHT22;7542;49.078;9.194;2023-06-04T02:05:43;27.30;37.90
14901;DHT22;7542;49.078;9.194;2023-06-04T02:06:47;27.30;37.90
14901;DHT22;7542;49.078;9.194;2023-06-04T02:07:50;27.30;37.90
14901;DHT22;7542;49.078;9.194;2023-06-04T02:08:53;27.30;37.90
14901;DHT22;7542;49.078;9.194;2023-06-04T02:09:55;27.30;37.80
14901;DHT22;7542;49.078;9.194;2023-06-04T02:10:58;27.30;37.80
14901;DHT22;7542;49.078;9.194;2023-06-04T02:11:59;27.30;37.80
14901;DHT22;7542;49.078;9.194;2023-06-04T02:13:02;27.30;37.80
14901;DHT22;7542;49.078;9.194;2023-06-04T02:14:05;27.20;37.80
14901;DHT22;7542;49.078;9.194;2023-06-04T02:15:09;27.20;37.80
14901;DHT22;7542;49.078;9.194;2023-06-04T02:16:12;27.20;37.80
14901;DHT22;7542;49.078;9.194;2023-06-04T02:17:14;27.20;37.80
14901;DHT22;7542;49.078;9.194;2023-06-04T02:18:19;27.20;37.80
14901;DHT22;7542;49.078;9.194;2023-06-04T02:19:26;27.20;37.80
14901;DHT22;7542;49.078;9.194;2023-06-04T02:20:29;27.00;37.80
14901;DHT22;7542;49.078;9.194;2023-06-04T02:21:30;27.10;37.70
14901;DHT22;7542;49.078;9.194;2023-06-04T02:22:32;27.10;37.70
14901;DHT22;7542;49.078;9.194;2023-06-04T02:23:34;27.10;37.70
14901;DHT22;7542;49.078;9.194;2023-06-04T02:24:36;27.10;37.70
14901;DHT22;7542;49.078;9.194;2023-06-04T02:25:40;27.00;37.70
14901;DHT22;7542;49.078;9.194;2023-06-04T02:26:42;27.00;37.70
14901;DHT22;7542;49.078;9.194;2023-06-04T02:27:44;27.00;37.80
14901;DHT22;7542;49.078;9.194;2023-06-04T02:28:46;27.00;37.80
14901;DHT22;7542;49.078;9.194;2023-06-04T02:29:48;27.00;37.80
14901;DHT22;7542;49.078;9.194;2023-06-04T02:30:50;27.00;37.80
14901;DHT22;7542;49.078;9.194;2023-06-04T02:31:52;27.00;37.70
14901;DHT22;7542;49.078;9.194;2023-06-04T02:32:54;27.00;37.70
14901;DHT22;7542;49.078;9.194;2023-06-04T02:33:56;27.00;37.70
14901;DHT22;7542;49.078;9.194;2023-06-04T02:34:58;27.00;37.70
14901;DHT22;7542;49.078;9.194;2023-06-04T02:36:00;27.00;37.60
14901;DHT22;7542;49.078;9.194;2023-06-04T02:37:04;27.00;37.60
14901;DHT22;7542;49.078;9.194;2023-06-04T02:38:06;26.90;37.10
14901;DHT22;7542;49.078;9.194;2023-06-04T02:39:08;26.90;37.10
14901;DHT22;7542;49.078;9.194;2023-06-04T02:40:11;26.90;37.10
14901;DHT22;7542;49.078;9.194;2023-06-04T02:41:13;26.80;37.10
14901;DHT22;7542;49.078;9.194;2023-06-04T02:42:14;26.90;37.00
14901;DHT22;7542;49.078;9.194;2023-06-04T02:43:16;26.80;37.00
14901;DHT22;7542;49.078;9.194;2023-06-04T02:44:18;26.80;37.10
14901;DHT22;7542;49.078;9.194;2023-06-04T02:45:21;26.80;37.10
14901;DHT22;7542;49.078;9.194;2023-06-04T02:46:24;26.80;37.00
14901;DHT22;7542;49.078;9.194;2023-06-04T02:47:27;26.80;37.00
14901;DHT22;7542;49.078;9.194;2023-06-04T02:48:29;26.80;37.00
14901;DHT22;7542;49.078;9.194;2023-06-04T02:49:31;26.80;37.10
14901;DHT22;7542;49.078;9.194;2023-06-04T02:50:33;26.80;37.00
14901;DHT22;7542;49.078;9.194;2023-06-04T02:51:35;26.80;37.10
14901;DHT22;7542;49.078;9.194;2023-06-04T02:52:36;26.80;37.00
14901;DHT22;7542;49.078;9.194;2023-06-04T02:53:39;26.70;37.00
14901;DHT22;7542;49.078;9.194;2023-06-04T02:54:41;26.80;36.90
14901;DHT22;7542;49.078;9.194;2023-06-04T02:55:43;26.80;37.00
14901;DHT22;7542;49.078;9.194;2023-06-04T02:56:44;26.80;37.00
14901;DHT22;7542;49.078;9.194;2023-06-04T02:57:47;26.70;37.00
14901;DHT22;7542;49.078;9.194;2023-06-04T02:58:52;26.70;37.00
14901;DHT22;7542;49.078;9.194;2023-06-04T02:59:57;26.60;37.00
14901;DHT22;7542;49.078;9.194;2023-06-04T03:00:59;26.70;37.10
14901;DHT22;7542;49.078;9.194;2023-06-04T03:02:01;26.60;37.00
14901;DHT22;7542;49.078;9.194;2023-06-04T03:03:03;26.60;37.00
14901;DHT22;7542;49.078;9.194;2023-06-04T03:04:05;26.60;37.00
14901;DHT22;7542;49.078;9.194;2023-06-04T03:05:13;26.60;37.00
14901;DHT22;7542;49.078;9.194;2023-06-04T03:06:17;26.60;37.10
14901;DHT22;7542;49.078;9.194;2023-06-04T03:07:21;26.60;37.10
14901;DHT22;7542;49.078;9.194;2023-06-04T03:08:24;26.60;37.00
14901;DHT22;7542;49.078;9.194;2023-06-04T03:09:26;26.60;37.10
14901;DHT22;7542;49.078;9.194;2023-06-04T03:10:28;26.60;37.10
14901;DHT22;7542;49.078;9.194;2023-06-04T03:11:31;26.60;37.10
14901;DHT22;7542;49.078;9.194;2023-06-04T03:12:33;26.60;37.10
14901;DHT22;7542;49.078;9.194;2023-06-04T03:13:35;26.50;37.10
14901;DHT22;7542;49.078;9.194;2023-06-04T03:14:37;26.50;37.10
14901;DHT22;7542;49.078;9.194;2023-06-04T03:15:39;26.50;37.10
14901;DHT22;7542;49.078;9.194;2023-06-04T03:16:41;26.50;37.10
14901;DHT22;7542;49.078;9.194;2023-06-04T03:17:44;26.50;37.10
14901;DHT22;7542;49.078;9.194;2023-06-04T03:18:46;26.50;37.10
14901;DHT22;7542;49.078;9.194;2023-06-04T03:19:48;26.50;37.10
14901;DHT22;7542;49.078;9.194;2023-06-04T03:20:50;26.50;37.00
14901;DHT22;7542;49.078;9.194;2023-06-04T03:21:52;26.50;37.00
14901;DHT22;7542;49.078;9.194;2023-06-04T03:22:53;26.50;37.00
14901;DHT22;7542;49.078;9.194;2023-06-04T03:23:56;26.40;37.00
14901;DHT22;7542;49.078;9.194;2023-06-04T03:24:58;26.50;37.00
14901;DHT22;7542;49.078;9.194;2023-06-04T03:26:04;26.40;37.00
14901;DHT22;7542;49.078;9.194;2023-06-04T03:27:08;26.40;37.00
14901;DHT22;7542;49.078;9.194;2023-06-04T03:28:10;26.40;37.10
14901;DHT22;7542;49.078;9.194;2023-06-04T03:29:12;26.40;37.10
14901;DHT22;7542;49.078;9.194;2023-06-04T03:30:15;26.40;37.10
14901;DHT22;7542;49.078;9.194;2023-06-04T03:31:16;26.40;37.00
14901;DHT22;7542;49.078;9.194;2023-06-04T03:32:18;26.40;37.10
14901;DHT22;7542;49.078;9.194;2023-06-04T03:33:20;26.40;37.10
14901;DHT22;7542;49.078;9.194;2023-06-04T03:34:22;26.40;37.10
14901;DHT22;7542;49.078;9.194;2023-06-04T03:35:27;26.40;37.10
14901;DHT22;7542;49.078;9.194;2023-06-04T03:36:30;26.30;37.10
14901;DHT22;7542;49.078;9.194;2023-06-04T03:37:33;26.20;37.10
14901;DHT22;7542;49.078;9.194;2023-06-04T03:38:35;26.30;37.10
14901;DHT22;7542;49.078;9.194;2023-06-04T03:39:36;26.30;37.20
14901;DHT22;7542;49.078;9.194;2023-06-04T03:40:39;26.30;37.10
14901;DHT22;7542;49.078;9.194;2023-06-04T03:41:41;26.30;37.20
14901;DHT22;7542;49.078;9.194;2023-06-04T03:42:43;26.20;37.30
14901;DHT22;7542;49.078;9.194;2023-06-04T03:43:45;26.30;37.20
14901;DHT22;7542;49.078;9.194;2023-06-04T03:44:47;26.20;37.30
14901;DHT22;7542;49.078;9.194;2023-06-04T03:45:49;26.20;37.30
14901;DHT22;7542;49.078;9.194;2023-06-04T03:46:51;26.20;37.30
14901;DHT22;7542;49.078;9.194;2023-06-04T03:47:52;26.20;37.30
14901;DHT22;7542;49.078;9.194;2023-06-04T03:48:54;26.20;37.30
14901;DHT22;7542;49.078;9.194;2023-06-04T03:49:56;26.20;37.30
14901;DHT22;7542;49.078;9.194;2023-06-04T03:50:58;26.20;37.40
14901;DHT22;7542;49.078;9.194;2023-06-04T03:52:00;26.10;37.40
14901;DHT22;7542;49.078;9.194;2023-06-04T03:53:03;26.20;37.40
14901;DHT22;7542;49.078;9.194;2023-06-04T03:54:07;26.20;37.40
14901;DHT22;7542;49.078;9.194;2023-06-04T03:55:10;26.20;37.40
14901;DHT22;7542;49.078;9.194;2023-06-04T03:56:12;26.00;37.40
14901;DHT22;7542;49.078;9.194;2023-06-04T03:57:15;26.10;37.40
14901;DHT22;7542;49.078;9.194;2023-06-04T03:58:17;26.20;37.40
14901;DHT22;7542;49.078;9.194;2023-06-04T03:59:19;20.60;35.20
14901;DHT22;7542;49.078;9.194;2023-06-04T04:00:21;26.10;37.40
14901;DHT22;7542;49.078;9.194;2023-06-04T04:01:23;26.00;37.40
14901;DHT22;7542;49.078;9.194;2023-06-04T04:02:25;26.10;37.50
14901;DHT22;7542;49.078;9.194;2023-06-04T04:03:28;26.00;37.50
14901;DHT22;7542;49.078;9.194;2023-06-04T04:04:32;26.00;37.50
14901;DHT22;7542;49.078;9.194;2023-06-04T04:05:34;26.00;37.50
14901;DHT22;7542;49.078;9.194;2023-06-04T04:06:37;26.00;37.50
14901;DHT22;7542;49.078;9.194;2023-06-04T04:07:40;26.00;37.50
14901;DHT22;7542;49.078;9.194;2023-06-04T04:08:42;26.00;37.40
14901;DHT22;7542;49.078;9.194;2023-06-04T04:09:45;26.00;37.50
14901;DHT22;7542;49.078;9.194;2023-06-04T04:10:47;26.00;37.40
14901;DHT22;7542;49.078;9.194;2023-06-04T04:11:49;26.00;37.50
14901;DHT22;7542;49.078;9.194;2023-06-04T04:12:51;26.00;37.40
14901;DHT22;7542;49.078;9.194;2023-06-04T04:13:56;26.00;37.50
14901;DHT22;7542;49.078;9.194;2023-06-04T04:14:58;25.90;37.00
14901;DHT22;7542;49.078;9.194;2023-06-04T04:16:00;26.00;37.40
14901;DHT22;7542;49.078;9.194;2023-06-04T04:17:02;25.90;37.10
14901;DHT22;7542;49.078;9.194;2023-06-04T04:18:05;25.90;37.10
14901;DHT22;7542;49.078;9.194;2023-06-04T04:19:10;25.90;37.10
14901;DHT22;7542;49.078;9.194;2023-06-04T04:20:13;25.90;37.10
14901;DHT22;7542;49.078;9.194;2023-06-04T04:21:15;25.90;37.00
14901;DHT22;7542;49.078;9.194;2023-06-04T04:22:17;26.00;37.40
14901;DHT22;7542;49.078;9.194;2023-06-04T04:23:19;25.90;37.00
14901;DHT22;7542;49.078;9.194;2023-06-04T04:24:25;25.90;37.10
14901;DHT22;7542;49.078;9.194;2023-06-04T04:25:28;25.90;37.10
14901;DHT22;7542;49.078;9.194;2023-06-04T04:26:31;25.90;37.10
14901;DHT22;7542;49.078;9.194;2023-06-04T04:27:32;25.90;37.10
14901;DHT22;7542;49.078;9.194;2023-06-04T04:28:36;25.80;37.10
14901;DHT22;7542;49.078;9.194;2023-06-04T04:29:39;25.90;37.10
14901;DHT22;7542;49.078;9.194;2023-06-04T04:30:41;25.90;37.10
14901;DHT22;7542;49.078;9.194;2023-06-04T04:31:43;25.90;37.00
14901;DHT22;7542;49.078;9.194;2023-06-04T04:32:45;25.90;37.00
14901;DHT22;7542;49.078;9.194;2023-06-04T04:33:50;25.90;37.10
14901;DHT22;7542;49.078;9.194;2023-06-04T04:34:53;25.90;37.10
14901;DHT22;7542;49.078;9.194;2023-06-04T04:35:56;25.80;37.30
14901;DHT22;7542;49.078;9.194;2023-06-04T04:37:00;25.80;37.40
14901;DHT22;7542;49.078;9.194;2023-06-04T04:38:04;25.80;37.40
14901;DHT22;7542;49.078;9.194;2023-06-04T04:39:06;25.80;37.50
14901;DHT22;7542;49.078;9.194;2023-06-04T04:40:08;25.80;37.50
14901;DHT22;7542;49.078;9.194;2023-06-04T04:41:14;25.90;37.50
14901;DHT22;7542;49.078;9.194;2023-06-04T04:42:16;25.80;37.40
14901;DHT22;7542;49.078;9.194;2023-06-04T04:43:38;25.80;37.40
14901;DHT22;7542;49.078;9.194;2023-06-04T04:44:41;25.80;37.40
14901;DHT22;7542;49.078;9.194;2023-06-04T04:45:43;25.80;37.40
14901;DHT22;7542;49.078;9.194;2023-06-04T04:46:45;25.60;37.40
14901;DHT22;7542;49.078;9.194;2023-06-04T04:47:47;25.70;37.40
14901;DHT22;7542;49.078;9.194;2023-06-04T04:48:49;25.70;37.40
14901;DHT22;7542;49.078;9.194;2023-06-04T04:49:51;25.70;37.40
14901;DHT22;7542;49.078;9.194;2023-06-04T04:50:53;25.70;37.40
14901;DHT22;7542;49.078;9.194;2023-06-04T04:51:56;25.70;37.40
14901;DHT22;7542;49.078;9.194;2023-06-04T04:52:58;25.70;37.40
14901;DHT22;7542;49.078;9.194;2023-06-04T04:54:00;25.70;37.40
14901;DHT22;7542;49.078;9.194;2023-06-04T04:55:02;25.60;37.30
14901;DHT22;7542;49.078;9.194;2023-06-04T04:56:05;25.70;37.40
14901;DHT22;7542;49.078;9.194;2023-06-04T04:57:08;25.70;37.50
14901;DHT22;7542;49.078;9.194;2023-06-04T04:58:15;25.60;37.50
14901;DHT22;7542;49.078;9.194;2023-06-04T04:59:17;25.60;37.50
14901;DHT22;7542;49.078;9.194;2023-06-04T05:00:19;25.60;37.60
14901;DHT22;7542;49.078;9.194;2023-06-04T05:01:22;25.60;37.60
14901;DHT22;7542;49.078;9.194;2023-06-04T05:02:25;25.70;37.50
14901;DHT22;7542;49.078;9.194;2023-06-04T05:03:27;25.60;37.60
14901;DHT22;7542;49.078;9.194;2023-06-04T05:04:29;25.50;37.60
14901;DHT22;7542;49.078;9.194;2023-06-04T05:05:32;25.50;37.60
14901;DHT22;7542;49.078;9.194;2023-06-04T05:06:35;25.60;37.60
14901;DHT22;7542;49.078;9.194;2023-06-04T05:07:37;25.50;37.60
14901;DHT22;7542;49.078;9.194;2023-06-04T05:08:39;25.60;37.70
14901;DHT22;7542;49.078;9.194;2023-06-04T05:09:41;25.60;37.70
14901;DHT22;7542;49.078;9.194;2023-06-04T05:10:43;25.60;37.70
14901;DHT22;7542;49.078;9.194;2023-06-04T05:11:45;25.50;37.70
14901;DHT22;7542;49.078;9.194;2023-06-04T05:12:54;25.50;37.70
14901;DHT22;7542;49.078;9.194;2023-06-04T05:13:57;25.60;37.70
14901;DHT22;7542;49.078;9.194;2023-06-04T05:14:59;25.50;37.80
14901;DHT22;7542;49.078;9.194;2023-06-04T05:16:01;25.50;37.80
14901;DHT22;7542;49.078;9.194;2023-06-04T05:17:08;25.60;37.90
14901;DHT22;7542;49.078;9.194;2023-06-04T05:18:12;25.50;37.90
14901;DHT22;7542;49.078;9.194;2023-06-04T05:19:18;25.50;37.90
14901;DHT22;7542;49.078;9.194;2023-06-04T05:20:20;25.60;37.90
14901;DHT22;7542;49.078;9.194;2023-06-04T05:21:23;25.50;38.00
14901;DHT22;7542;49.078;9.194;2023-06-04T05:22:24;25.50;38.00
14901;DHT22;7542;49.078;9.194;2023-06-04T05:23:30;25.30;38.00
14901;DHT22;7542;49.078;9.194;2023-06-04T05:24:34;25.60;38.10
14901;DHT22;7542;49.078;9.194;2023-06-04T05:25:35;25.50;38.00
14901;DHT22;7542;49.078;9.194;2023-06-04T05:26:38;25.60;38.10
14901;DHT22;7542;49.078;9.194;2023-06-04T05:27:41;25.60;38.10
14901;DHT22;7542;49.078;9.194;2023-06-04T05:28:43;25.60;38.10
14901;DHT22;7542;49.078;9.194;2023-06-04T05:29:45;25.60;38.10
14901;DHT22;7542;49.078;9.194;2023-06-04T05:30:47;25.60;38.10
14901;DHT22;7542;49.078;9.194;2023-06-04T05:31:50;25.60;38.20
14901;DHT22;7542;49.078;9.194;2023-06-04T05:32:52;25.60;38.20
14901;DHT22;7542;49.078;9.194;2023-06-04T05:33:55;25.60;38.20
14901;DHT22;7542;49.078;9.194;2023-06-04T05:34:58;25.60;38.30
14901;DHT22;7542;49.078;9.194;2023-06-04T05:36:00;25.60;38.40
14901;DHT22;7542;49.078;9.194;2023-06-04T05:37:02;25.60;38.40
14901;DHT22;7542;49.078;9.194;2023-06-04T05:38:06;25.60;38.40
14901;DHT22;7542;49.078;9.194;2023-06-04T05:39:08;25.60;38.40
14901;DHT22;7542;49.078;9.194;2023-06-04T05:40:11;25.60;38.50
14901;DHT22;7542;49.078;9.194;2023-06-04T05:41:14;25.60;38.40
14901;DHT22;7542;49.078;9.194;2023-06-04T05:42:16;25.60;38.40
14901;DHT22;7542;49.078;9.194;2023-06-04T05:43:18;25.70;38.60
14901;DHT22;7542;49.078;9.194;2023-06-04T05:44:20;25.70;38.50
14901;DHT22;7542;49.078;9.194;2023-06-04T05:45:22;25.70;38.40
14901;DHT22;7542;49.078;9.194;2023-06-04T05:46:23;25.70;38.70
14901;DHT22;7542;49.078;9.194;2023-06-04T05:47:27;25.60;38.90
14901;DHT22;7542;49.078;9.194;2023-06-04T05:48:33;25.70;39.10
14901;DHT22;7542;49.078;9.194;2023-06-04T05:49:34;25.70;39.70
14901;DHT22;7542;49.078;9.194;2023-06-04T05:50:36;25.70;40.10
14901;DHT22;7542;49.078;9.194;2023-06-04T05:51:38;25.70;39.30
14901;DHT22;7542;49.078;9.194;2023-06-04T05:52:40;25.70;39.40
14901;DHT22;7542;49.078;9.194;2023-06-04T05:53:42;25.70;39.80
14901;DHT22;7542;49.078;9.194;2023-06-04T05:54:44;25.70;39.90
14901;DHT22;7542;49.078;9.194;2023-06-04T05:55:47;25.70;39.90
14901;DHT22;7542;49.078;9.194;2023-06-04T05:56:49;25.70;39.90
14901;DHT22;7542;49.078;9.194;2023-06-04T05:57:50;25.70;39.90
14901;DHT22;7542;49.078;9.194;2023-06-04T05:58:53;25.70;39.80
14901;DHT22;7542;49.078;9.194;2023-06-04T05:59:55;25.70;39.90
14901;DHT22;7542;49.078;9.194;2023-06-04T06:00:57;25.70;39.80
14901;DHT22;7542;49.078;9.194;2023-06-04T06:01:59;25.70;39.80
14901;DHT22;7542;49.078;9.194;2023-06-04T06:03:01;25.70;39.80
14901;DHT22;7542;49.078;9.194;2023-06-04T06:04:03;25.70;39.80
14901;DHT22;7542;49.078;9.194;2023-06-04T06:05:06;25.70;39.80
14901;DHT22;7542;49.078;9.194;2023-06-04T06:06:10;25.70;39.90
14901;DHT22;7542;49.078;9.194;2023-06-04T06:07:12;25.70;39.90
14901;DHT22;7542;49.078;9.194;2023-06-04T06:08:14;25.80;39.80
14901;DHT22;7542;49.078;9.194;2023-06-04T06:09:16;25.80;39.70
14901;DHT22;7542;49.078;9.194;2023-06-04T06:10:18;25.80;39.60
14901;DHT22;7542;49.078;9.194;2023-06-04T06:11:21;25.90;39.60
14901;DHT22;7542;49.078;9.194;2023-06-04T06:12:23;25.90;39.60
14901;DHT22;7542;49.078;9.194;2023-06-04T06:13:25;25.80;39.60
14901;DHT22;7542;49.078;9.194;2023-06-04T06:14:27;25.80;39.70
14901;DHT22;7542;49.078;9.194;2023-06-04T06:15:29;26.00;40.10
14901;DHT22;7542;49.078;9.194;2023-06-04T06:16:31;25.80;39.70
14901;DHT22;7542;49.078;9.194;2023-06-04T06:17:34;25.80;39.70
14901;DHT22;7542;49.078;9.194;2023-06-04T06:18:37;25.90;39.70
14901;DHT22;7542;49.078;9.194;2023-06-04T06:19:39;25.90;39.70
14901;DHT22;7542;49.078;9.194;2023-06-04T06:20:41;25.90;39.70
14901;DHT22;7542;49.078;9.194;2023-06-04T06:21:43;25.90;39.70
14901;DHT22;7542;49.078;9.194;2023-06-04T06:22:45;25.90;39.70
14901;DHT22;7542;49.078;9.194;2023-06-04T06:23:47;25.90;39.60
14901;DHT22;7542;49.078;9.194;2023-06-04T06:24:49;25.90;39.70
14901;DHT22;7542;49.078;9.194;2023-06-04T06:25:51;25.90;39.70
14901;DHT22;7542;49.078;9.194;2023-06-04T06:26:53;25.90;39.70
14901;DHT22;7542;49.078;9.194;2023-06-04T06:27:55;25.90;39.80
14901;DHT22;7542;49.078;9.194;2023-06-04T06:28:57;25.90;39.80
14901;DHT22;7542;49.078;9.194;2023-06-04T06:29:59;25.90;39.80
14901;DHT22;7542;49.078;9.194;2023-06-04T06:31:01;25.90;39.70
14901;DHT22;7542;49.078;9.194;2023-06-04T06:32:04;26.00;40.20
14901;DHT22;7542;49.078;9.194;2023-06-04T06:33:06;26.00;40.10
14901;DHT22;7542;49.078;9.194;2023-06-04T06:34:08;25.90;39.70
14901;DHT22;7542;49.078;9.194;2023-06-04T06:35:10;25.90;39.70
14901;DHT22;7542;49.078;9.194;2023-06-04T06:36:12;25.90;39.80
14901;DHT22;7542;49.078;9.194;2023-06-04T06:37:14;25.90;39.80
14901;DHT22;7542;49.078;9.194;2023-06-04T06:38:16;25.90;40.00
14901;DHT22;7542;49.078;9.194;2023-06-04T06:39:19;26.00;40.70
14901;DHT22;7542;49.078;9.194;2023-06-04T06:40:21;26.00;40.50
14901;DHT22;7542;49.078;9.194;2023-06-04T06:41:23;26.00;40.50
14901;DHT22;7542;49.078;9.194;2023-06-04T06:42:25;26.00;40.40
14901;DHT22;7542;49.078;9.194;2023-06-04T06:43:27;26.00;40.30
14901;DHT22;7542;49.078;9.194;2023-06-04T06:44:29;26.00;40.20
14901;DHT22;7542;49.078;9.194;2023-06-04T06:45:31;26.00;40.20